Авиационная погода в Москва - Шереметьево

СКИДКИ НА СМАРТФОНЫ!

Погода METAR: 
UUEE 091530Z 02004MPS CAVOK 20/13 Q1022 R06R/CLRD62 R06C/CLRD62 NOSIG
Время наблюдения
2022-08-09T15:30:00Z
Температура C
20.0
Точка росы
13.0
Направление ветра
20
Скорость ветра (узлы)
8
Метео видимость
6.21
Облачность
CAVOK
Нижняя граница облачности (футы)
Явления погоды
Условия полета
VFR
Аэропорт подробнее: 

Скидки на навигаторы!